sensor_id;sensor_type;location;lat;lon;timestamp;pressure;altitude;pressure_sealevel;temperature;humidity
38033;BME280;23841;48.524;1.342;2023-06-22T00:01:43;99324.03;;;24.23;53.24
38033;BME280;23841;48.524;1.342;2023-06-22T00:04:08;99324.94;;;24.23;53.29
38033;BME280;23841;48.524;1.342;2023-06-22T00:06:33;99326.16;;;24.19;53.29
38033;BME280;23841;48.524;1.342;2023-06-22T00:08:59;99316.16;;;24.19;53.36
38033;BME280;23841;48.524;1.342;2023-06-22T00:11:24;99318.84;;;24.19;53.40
38033;BME280;23841;48.524;1.342;2023-06-22T00:13:50;99315.38;;;24.17;53.41
38033;BME280;23841;48.524;1.342;2023-06-22T00:16:17;99308.47;;;24.13;53.11
38033;BME280;23841;48.524;1.342;2023-06-22T00:18:42;99302.44;;;24.10;53.27
38033;BME280;23841;48.524;1.342;2023-06-22T00:21:12;99311.19;;;24.13;53.61
38033;BME280;23841;48.524;1.342;2023-06-22T00:23:38;99312.19;;;24.12;53.51
38033;BME280;23841;48.524;1.342;2023-06-22T00:26:06;99314.00;;;24.12;53.41
38033;BME280;23841;48.524;1.342;2023-06-22T00:28:37;99310.44;;;24.11;53.41
38033;BME280;23841;48.524;1.342;2023-06-22T00:31:02;99317.88;;;24.09;53.38
38033;BME280;23841;48.524;1.342;2023-06-22T00:33:28;99310.44;;;24.11;53.47
38033;BME280;23841;48.524;1.342;2023-06-22T00:35:53;99294.16;;;24.11;53.42
38033;BME280;23841;48.524;1.342;2023-06-22T00:38:19;99299.84;;;24.08;53.54
38033;BME280;23841;48.524;1.342;2023-06-22T00:40:46;99293.53;;;24.08;53.53
38033;BME280;23841;48.524;1.342;2023-06-22T00:43:11;99291.81;;;24.07;53.51
38033;BME280;23841;48.524;1.342;2023-06-22T00:45:38;99286.41;;;24.07;53.54
38033;BME280;23841;48.524;1.342;2023-06-22T00:48:03;99270.84;;;23.97;53.65
38033;BME280;23841;48.524;1.342;2023-06-22T00:50:31;99283.81;;;24.05;53.58
38033;BME280;23841;48.524;1.342;2023-06-22T00:53:01;99280.22;;;24.05;53.56
38033;BME280;23841;48.524;1.342;2023-06-22T00:55:28;99283.16;;;24.01;53.57
38033;BME280;23841;48.524;1.342;2023-06-22T00:57:53;99270.47;;;24.02;53.48
38033;BME280;23841;48.524;1.342;2023-06-22T01:00:24;99274.19;;;24.01;53.39
38033;BME280;23841;48.524;1.342;2023-06-22T01:02:51;99265.16;;;24.00;53.60
38033;BME280;23841;48.524;1.342;2023-06-22T01:05:22;99259.13;;;23.97;53.60
38033;BME280;23841;48.524;1.342;2023-06-22T01:10:59;99246.78;;;23.93;53.57
38033;BME280;23841;48.524;1.342;2023-06-22T01:13:47;99242.22;;;23.93;53.63
38033;BME280;23841;48.524;1.342;2023-06-22T01:16:31;99250.47;;;23.92;53.69
38033;BME280;23841;48.524;1.342;2023-06-22T01:19:00;99238.97;;;23.88;53.58
38033;BME280;23841;48.524;1.342;2023-06-22T01:21:30;99237.03;;;23.90;53.58
38033;BME280;23841;48.524;1.342;2023-06-22T01:26:48;99243.56;;;23.88;53.51
38033;BME280;23841;48.524;1.342;2023-06-22T01:29:20;99230.09;;;23.86;53.38
38033;BME280;23841;48.524;1.342;2023-06-22T01:31:47;99232.91;;;23.84;53.43
38033;BME280;23841;48.524;1.342;2023-06-22T01:34:13;99231.31;;;23.82;53.57
38033;BME280;23841;48.524;1.342;2023-06-22T01:36:40;99237.59;;;23.82;53.59
38033;BME280;23841;48.524;1.342;2023-06-22T01:39:07;99235.13;;;23.79;53.72
38033;BME280;23841;48.524;1.342;2023-06-22T01:41:36;99224.28;;;23.79;53.63
38033;BME280;23841;48.524;1.342;2023-06-22T01:44:05;99222.31;;;23.81;53.54
38033;BME280;23841;48.524;1.342;2023-06-22T01:46:33;99229.69;;;23.79;53.79
38033;BME280;23841;48.524;1.342;2023-06-22T01:48:59;99220.84;;;23.77;53.57
38033;BME280;23841;48.524;1.342;2023-06-22T01:51:25;99223.63;;;23.76;53.56
38033;BME280;23841;48.524;1.342;2023-06-22T01:53:50;99225.63;;;23.74;53.51
38033;BME280;23841;48.524;1.342;2023-06-22T01:56:17;99211.19;;;23.73;53.71
38033;BME280;23841;48.524;1.342;2023-06-22T01:59:12;99216.75;;;23.72;53.65
38033;BME280;23841;48.524;1.342;2023-06-22T02:02:01;99208.63;;;23.72;53.53
38033;BME280;23841;48.524;1.342;2023-06-22T02:04:33;99208.84;;;23.68;53.52
38033;BME280;23841;48.524;1.342;2023-06-22T02:07:05;99204.50;;;23.66;53.39
38033;BME280;23841;48.524;1.342;2023-06-22T02:09:33;99212.53;;;23.67;53.52
38033;BME280;23841;48.524;1.342;2023-06-22T02:12:02;99216.47;;;23.63;53.43
38033;BME280;23841;48.524;1.342;2023-06-22T02:14:28;99214.75;;;23.62;53.58
38033;BME280;23841;48.524;1.342;2023-06-22T02:16:54;99220.16;;;23.62;53.47
38033;BME280;23841;48.524;1.342;2023-06-22T02:19:24;99231.13;;;23.61;53.37
38033;BME280;23841;48.524;1.342;2023-06-22T02:21:50;99235.66;;;23.60;53.39
38033;BME280;23841;48.524;1.342;2023-06-22T02:24:15;99230.38;;;23.59;53.58
38033;BME280;23841;48.524;1.342;2023-06-22T02:26:42;99229.63;;;23.57;53.65
38033;BME280;23841;48.524;1.342;2023-06-22T02:29:08;99233.31;;;23.56;53.36
38033;BME280;23841;48.524;1.342;2023-06-22T02:31:33;99238.75;;;23.56;53.47
38033;BME280;23841;48.524;1.342;2023-06-22T02:33:59;99237.00;;;23.55;53.68
38033;BME280;23841;48.524;1.342;2023-06-22T02:36:25;99241.56;;;23.54;53.51
38033;BME280;23841;48.524;1.342;2023-06-22T02:38:53;99245.25;;;23.53;53.47
38033;BME280;23841;48.524;1.342;2023-06-22T02:41:19;99243.31;;;23.55;53.60
38033;BME280;23841;48.524;1.342;2023-06-22T02:43:45;99239.97;;;23.51;53.61
38033;BME280;23841;48.524;1.342;2023-06-22T02:46:12;99231.94;;;23.50;53.43
38033;BME280;23841;48.524;1.342;2023-06-22T02:48:41;99225.69;;;23.49;53.63
38033;BME280;23841;48.524;1.342;2023-06-22T02:51:06;99226.66;;;23.48;53.65
38033;BME280;23841;48.524;1.342;2023-06-22T02:53:32;99221.22;;;23.48;53.49
38033;BME280;23841;48.524;1.342;2023-06-22T02:55:57;99214.31;;;23.44;53.52
38033;BME280;23841;48.524;1.342;2023-06-22T02:58:23;99211.59;;;23.44;53.59
38033;BME280;23841;48.524;1.342;2023-06-22T03:00:49;99206.19;;;23.44;53.66
38033;BME280;23841;48.524;1.342;2023-06-22T03:03:18;99200.00;;;23.42;53.61
38033;BME280;23841;48.524;1.342;2023-06-22T03:05:43;99195.69;;;23.40;53.67
38033;BME280;23841;48.524;1.342;2023-06-22T03:08:09;99195.78;;;23.38;53.72
38033;BME280;23841;48.524;1.342;2023-06-22T03:10:34;99194.94;;;23.38;53.69
38033;BME280;23841;48.524;1.342;2023-06-22T03:13:00;99188.91;;;23.34;53.44
38033;BME280;23841;48.524;1.342;2023-06-22T03:15:25;99183.50;;;23.34;53.42
38033;BME280;23841;48.524;1.342;2023-06-22T03:17:51;99189.00;;;23.32;53.56
38033;BME280;23841;48.524;1.342;2023-06-22T03:20:16;99188.16;;;23.32;53.63
38033;BME280;23841;48.524;1.342;2023-06-22T03:22:42;99188.25;;;23.30;53.66
38033;BME280;23841;48.524;1.342;2023-06-22T03:25:09;99186.66;;;23.28;53.44
38033;BME280;23841;48.524;1.342;2023-06-22T03:27:41;99184.91;;;23.27;53.49
38033;BME280;23841;48.524;1.342;2023-06-22T03:30:08;99183.94;;;23.28;53.37
38033;BME280;23841;48.524;1.342;2023-06-22T03:32:34;99185.78;;;23.27;53.50
38033;BME280;23841;48.524;1.342;2023-06-22T03:34:59;99186.66;;;23.28;53.63
38033;BME280;23841;48.524;1.342;2023-06-22T03:37:26;99178.75;;;23.25;53.40
38033;BME280;23841;48.524;1.342;2023-06-22T03:39:51;99156.16;;;23.13;53.47
38033;BME280;23841;48.524;1.342;2023-06-22T03:42:17;99174.44;;;23.22;53.50
38033;BME280;23841;48.524;1.342;2023-06-22T03:44:42;99177.16;;;23.22;53.55
38033;BME280;23841;48.524;1.342;2023-06-22T03:47:08;99177.25;;;23.21;53.38
38033;BME280;23841;48.524;1.342;2023-06-22T03:49:34;99165.91;;;23.15;53.55
38033;BME280;23841;48.524;1.342;2023-06-22T03:52:02;99169.38;;;23.17;53.42
38033;BME280;23841;48.524;1.342;2023-06-22T03:54:29;99166.78;;;23.16;53.33
38033;BME280;23841;48.524;1.342;2023-06-22T03:56:56;99169.59;;;23.14;53.61
38033;BME280;23841;48.524;1.342;2023-06-22T03:59:21;99180.44;;;23.14;53.58
38033;BME280;23841;48.524;1.342;2023-06-22T04:01:46;99177.84;;;23.13;53.38
38033;BME280;23841;48.524;1.342;2023-06-22T04:04:12;99173.31;;;23.13;53.67
38033;BME280;23841;48.524;1.342;2023-06-22T04:06:38;99172.63;;;23.10;53.47
38033;BME280;23841;48.524;1.342;2023-06-22T04:09:05;99173.47;;;23.10;53.64
38033;BME280;23841;48.524;1.342;2023-06-22T04:11:30;99179.00;;;23.09;53.62
38033;BME280;23841;48.524;1.342;2023-06-22T04:13:56;99178.16;;;23.08;53.56
38033;BME280;23841;48.524;1.342;2023-06-22T04:16:21;99180.22;;;23.05;53.60
38033;BME280;23841;48.524;1.342;2023-06-22T04:18:47;99184.78;;;23.04;53.31
38033;BME280;23841;48.524;1.342;2023-06-22T04:21:13;99177.75;;;23.01;53.70
38033;BME280;23841;48.524;1.342;2023-06-22T04:23:38;99178.63;;;23.02;53.54
38033;BME280;23841;48.524;1.342;2023-06-22T04:26:04;99187.84;;;22.99;53.47
38033;BME280;23841;48.524;1.342;2023-06-22T04:28:30;99179.84;;;22.98;53.33
38033;BME280;23841;48.524;1.342;2023-06-22T04:31:00;99181.66;;;22.97;53.54
38033;BME280;23841;48.524;1.342;2023-06-22T04:33:27;99177.34;;;22.95;53.48
38033;BME280;23841;48.524;1.342;2023-06-22T04:35:55;99168.50;;;22.93;53.57
38033;BME280;23841;48.524;1.342;2023-06-22T04:38:22;99177.47;;;22.93;53.76
38033;BME280;23841;48.524;1.342;2023-06-22T04:40:48;99174.13;;;22.90;53.55
38033;BME280;23841;48.524;1.342;2023-06-22T04:43:13;99172.28;;;22.90;53.55
38033;BME280;23841;48.524;1.342;2023-06-22T04:45:39;99174.03;;;22.91;53.42
38033;BME280;23841;48.524;1.342;2023-06-22T04:48:05;99175.09;;;22.89;53.40
38033;BME280;23841;48.524;1.342;2023-06-22T04:50:30;99165.25;;;22.88;53.49
38033;BME280;23841;48.524;1.342;2023-06-22T04:52:57;99172.41;;;22.89;53.70
38033;BME280;23841;48.524;1.342;2023-06-22T04:55:24;99162.66;;;22.86;53.62
38033;BME280;23841;48.524;1.342;2023-06-22T04:57:52;99161.81;;;22.86;53.61
38033;BME280;23841;48.524;1.342;2023-06-22T05:00:20;99161.69;;;22.87;53.61
38033;BME280;23841;48.524;1.342;2023-06-22T05:02:50;99164.72;;;22.82;53.80
38033;BME280;23841;48.524;1.342;2023-06-22T05:05:17;99166.22;;;22.87;53.81
38033;BME280;23841;48.524;1.342;2023-06-22T05:07:46;99164.50;;;22.86;53.58
38033;BME280;23841;48.524;1.342;2023-06-22T05:10:14;99160.19;;;22.83;53.90
38033;BME280;23841;48.524;1.342;2023-06-22T05:12:40;99159.31;;;22.82;53.79
38033;BME280;23841;48.524;1.342;2023-06-22T05:15:07;99162.78;;;22.84;53.99
38033;BME280;23841;48.524;1.342;2023-06-22T05:17:33;99159.31;;;22.82;53.76
38033;BME280;23841;48.524;1.342;2023-06-22T05:19:58;99164.72;;;22.82;54.07
38033;BME280;23841;48.524;1.342;2023-06-22T05:22:24;99158.44;;;22.82;54.15
38033;BME280;23841;48.524;1.342;2023-06-22T05:24:49;99155.63;;;22.83;54.02
38033;BME280;23841;48.524;1.342;2023-06-22T05:27:15;99160.31;;;22.81;53.91
38033;BME280;23841;48.524;1.342;2023-06-22T05:29:40;99161.03;;;22.83;53.92
38033;BME280;23841;48.524;1.342;2023-06-22T05:32:07;99160.81;;;22.87;54.25
38033;BME280;23841;48.524;1.342;2023-06-22T05:34:33;99157.47;;;22.83;54.40
38033;BME280;23841;48.524;1.342;2023-06-22T05:36:58;99163.88;;;22.82;54.37
38033;BME280;23841;48.524;1.342;2023-06-22T05:39:24;99156.59;;;22.82;54.16
38033;BME280;23841;48.524;1.342;2023-06-22T05:41:50;99157.47;;;22.83;54.28
38033;BME280;23841;48.524;1.342;2023-06-22T05:44:15;99170.06;;;22.84;54.64
38033;BME280;23841;48.524;1.342;2023-06-22T05:46:42;99169.94;;;22.86;54.38
38033;BME280;23841;48.524;1.342;2023-06-22T05:49:12;99167.22;;;22.86;54.61
38033;BME280;23841;48.524;1.342;2023-06-22T05:51:39;99170.78;;;22.86;54.46
38033;BME280;23841;48.524;1.342;2023-06-22T05:54:04;99166.34;;;22.85;54.52
38033;BME280;23841;48.524;1.342;2023-06-22T05:56:29;99167.97;;;22.88;54.52
38033;BME280;23841;48.524;1.342;2023-06-22T05:58:55;99173.38;;;22.88;54.76
38033;BME280;23841;48.524;1.342;2023-06-22T06:01:20;99167.00;;;22.89;54.79
38033;BME280;23841;48.524;1.342;2023-06-22T06:03:46;99177.28;;;22.83;54.41
38033;BME280;23841;48.524;1.342;2023-06-22T06:06:12;99176.44;;;22.83;54.60
38033;BME280;23841;48.524;1.342;2023-06-22T06:08:38;99176.56;;;22.81;54.67
38033;BME280;23841;48.524;1.342;2023-06-22T06:11:04;99180.22;;;22.80;54.80
38033;BME280;23841;48.524;1.342;2023-06-22T06:13:29;99177.53;;;22.80;54.87
38033;BME280;23841;48.524;1.342;2023-06-22T06:15:55;99180.97;;;22.82;54.71
38033;BME280;23841;48.524;1.342;2023-06-22T06:18:21;99182.81;;;22.82;54.82
38033;BME280;23841;48.524;1.342;2023-06-22T06:20:47;99182.94;;;22.80;54.84
38033;BME280;23841;48.524;1.342;2023-06-22T06:23:12;99186.63;;;22.79;54.88
38033;BME280;23841;48.524;1.342;2023-06-22T06:25:38;99197.44;;;22.79;54.90
38033;BME280;23841;48.524;1.342;2023-06-22T06:28:03;99198.22;;;22.81;54.82
38033;BME280;23841;48.524;1.342;2023-06-22T06:30:29;99186.63;;;22.79;54.76
38033;BME280;23841;48.524;1.342;2023-06-22T06:32:55;99187.63;;;22.78;55.02
38033;BME280;23841;48.524;1.342;2023-06-22T06:35:21;99184.91;;;22.78;55.03
38033;BME280;23841;48.524;1.342;2023-06-22T06:37:49;99187.63;;;22.78;55.12
38033;BME280;23841;48.524;1.342;2023-06-22T06:40:16;99189.44;;;22.78;54.92
38033;BME280;23841;48.524;1.342;2023-06-22T06:42:46;99186.84;;;22.76;55.08
38033;BME280;23841;48.524;1.342;2023-06-22T06:45:16;99185.88;;;22.77;54.85
38033;BME280;23841;48.524;1.342;2023-06-22T06:47:42;99192.28;;;22.76;55.16
38033;BME280;23841;48.524;1.342;2023-06-22T06:50:08;99195.09;;;22.75;55.01
38033;BME280;23841;48.524;1.342;2023-06-22T06:52:34;99195.22;;;22.73;54.97
38033;BME280;23841;48.524;1.342;2023-06-22T06:54:59;99190.03;;;22.70;55.09
38033;BME280;23841;48.524;1.342;2023-06-22T06:57:25;99178.44;;;22.68;55.12
38033;BME280;23841;48.524;1.342;2023-06-22T06:59:54;99191.00;;;22.69;55.11
38033;BME280;23841;48.524;1.342;2023-06-22T07:02:21;99191.00;;;22.69;55.53
38033;BME280;23841;48.524;1.342;2023-06-22T07:04:46;99188.41;;;22.67;55.44
38033;BME280;23841;48.524;1.342;2023-06-22T07:07:12;99191.22;;;22.66;55.43
38033;BME280;23841;48.524;1.342;2023-06-22T07:09:37;99194.91;;;22.65;55.51
38033;BME280;23841;48.524;1.342;2023-06-22T07:12:03;99188.72;;;22.63;55.73
38033;BME280;23841;48.524;1.342;2023-06-22T07:14:29;99189.94;;;22.59;55.65
38033;BME280;23841;48.524;1.342;2023-06-22T07:16:57;99194.38;;;22.60;55.85
38033;BME280;23841;48.524;1.342;2023-06-22T07:19:27;99207.16;;;22.58;55.78
38033;BME280;23841;48.524;1.342;2023-06-22T07:21:53;99204.69;;;22.55;55.83
38033;BME280;23841;48.524;1.342;2023-06-22T07:24:20;99202.97;;;22.54;55.96
38033;BME280;23841;48.524;1.342;2023-06-22T07:26:49;99214.75;;;22.53;56.29
38033;BME280;23841;48.524;1.342;2023-06-22T07:29:18;99215.72;;;22.52;56.12
38033;BME280;23841;48.524;1.342;2023-06-22T07:31:45;99210.53;;;22.48;56.30
38033;BME280;23841;48.524;1.342;2023-06-22T07:34:11;99211.31;;;22.50;56.32
38033;BME280;23841;48.524;1.342;2023-06-22T07:36:36;99216.81;;;22.49;56.57
38033;BME280;23841;48.524;1.342;2023-06-22T07:39:02;99209.69;;;22.48;56.33
38033;BME280;23841;48.524;1.342;2023-06-22T07:41:29;99221.47;;;22.47;56.76
38033;BME280;23841;48.524;1.342;2023-06-22T07:43:54;99210.75;;;22.45;56.92
38033;BME280;23841;48.524;1.342;2023-06-22T07:46:19;99219.13;;;22.42;56.75
38033;BME280;23841;48.524;1.342;2023-06-22T07:48:45;99211.00;;;22.42;57.22
38033;BME280;23841;48.524;1.342;2023-06-22T07:51:11;99220.09;;;22.41;56.94
38033;BME280;23841;48.524;1.342;2023-06-22T07:53:38;99223.88;;;22.39;57.30
38033;BME280;23841;48.524;1.342;2023-06-22T07:56:05;99220.19;;;22.40;57.31
38033;BME280;23841;48.524;1.342;2023-06-22T07:58:32;99217.72;;;22.37;57.21
38033;BME280;23841;48.524;1.342;2023-06-22T08:00:58;99224.84;;;22.38;57.39
38033;BME280;23841;48.524;1.342;2023-06-22T08:03:24;99220.50;;;22.35;57.44
38033;BME280;23841;48.524;1.342;2023-06-22T08:05:49;99221.50;;;22.34;57.58
38033;BME280;23841;48.524;1.342;2023-06-22T08:08:15;99225.06;;;22.35;57.49
38033;BME280;23841;48.524;1.342;2023-06-22T08:10:40;99226.13;;;22.32;58.04
38033;BME280;23841;48.524;1.342;2023-06-22T08:13:07;99227.06;;;22.31;57.77
38033;BME280;23841;48.524;1.342;2023-06-22T08:15:32;99231.75;;;22.29;58.14
38033;BME280;23841;48.524;1.342;2023-06-22T08:17:58;99236.41;;;22.27;58.04
38033;BME280;23841;48.524;1.342;2023-06-22T08:20:25;99236.31;;;22.28;57.95
38033;BME280;23841;48.524;1.342;2023-06-22T08:22:50;99239.97;;;22.27;58.07
38033;BME280;23841;48.524;1.342;2023-06-22T08:25:15;99240.94;;;22.26;57.82
38033;BME280;23841;48.524;1.342;2023-06-22T08:27:45;99241.84;;;22.27;58.43
38033;BME280;23841;48.524;1.342;2023-06-22T08:30:11;99247.25;;;22.27;57.95
38033;BME280;23841;48.524;1.342;2023-06-22T08:32:37;99249.94;;;22.27;58.05
38033;BME280;23841;48.524;1.342;2023-06-22T08:35:02;99249.16;;;22.25;58.12
38033;BME280;23841;48.524;1.342;2023-06-22T08:37:28;99250.13;;;22.24;58.23
38033;BME280;23841;48.524;1.342;2023-06-22T08:40:02;99249.16;;;22.25;58.24
38033;BME280;23841;48.524;1.342;2023-06-22T08:42:32;99252.72;;;22.25;58.30
38033;BME280;23841;48.524;1.342;2023-06-22T08:44:57;99251.88;;;22.25;58.13
38033;BME280;23841;48.524;1.342;2023-06-22T08:47:23;99256.31;;;22.26;57.99
38033;BME280;23841;48.524;1.342;2023-06-22T08:49:49;99259.25;;;22.23;58.29
38033;BME280;23841;48.524;1.342;2023-06-22T08:52:14;99267.44;;;22.21;58.23
38033;BME280;23841;48.524;1.342;2023-06-22T08:54:40;99273.75;;;22.22;58.50
38033;BME280;23841;48.524;1.342;2023-06-22T08:57:05;99281.88;;;22.22;58.36
38033;BME280;23841;48.524;1.342;2023-06-22T08:59:31;99286.31;;;22.23;58.70
38033;BME280;23841;48.524;1.342;2023-06-22T09:01:57;99283.69;;;22.21;58.65
38033;BME280;23841;48.524;1.342;2023-06-22T09:04:22;99284.56;;;22.22;58.49
38033;BME280;23841;48.524;1.342;2023-06-22T09:06:48;99289.09;;;22.21;58.83
38033;BME280;23841;48.524;1.342;2023-06-22T09:09:15;99279.38;;;22.19;58.90
38033;BME280;23841;48.524;1.342;2023-06-22T09:11:42;99279.38;;;22.19;58.88
38033;BME280;23841;48.524;1.342;2023-06-22T09:14:08;99272.22;;;22.17;59.05
38033;BME280;23841;48.524;1.342;2023-06-22T09:16:34;99282.28;;;22.15;59.24
38033;BME280;23841;48.524;1.342;2023-06-22T09:18:59;99280.47;;;22.16;59.03
38033;BME280;23841;48.524;1.342;2023-06-22T09:21:25;99280.56;;;22.14;59.77
38033;BME280;23841;48.524;1.342;2023-06-22T09:23:50;99281.53;;;22.13;59.52
38033;BME280;23841;48.524;1.342;2023-06-22T09:26:20;99278.06;;;22.11;60.08
38033;BME280;23841;48.524;1.342;2023-06-22T09:28:46;99269.19;;;22.09;60.17
38033;BME280;23841;48.524;1.342;2023-06-22T09:31:12;99269.31;;;22.08;60.67
38033;BME280;23841;48.524;1.342;2023-06-22T09:33:39;99266.91;;;22.03;60.51
38033;BME280;23841;48.524;1.342;2023-06-22T09:36:06;99278.50;;;22.05;61.17
38033;BME280;23841;48.524;1.342;2023-06-22T09:38:35;99279.47;;;22.04;60.96
38033;BME280;23841;48.524;1.342;2023-06-22T09:41:00;99282.16;;;22.04;61.30
38033;BME280;23841;48.524;1.342;2023-06-22T09:43:27;99290.28;;;22.04;61.23
38033;BME280;23841;48.524;1.342;2023-06-22T09:45:52;99294.72;;;22.05;61.13
38033;BME280;23841;48.524;1.342;2023-06-22T09:48:17;99298.28;;;22.06;61.57
38033;BME280;23841;48.524;1.342;2023-06-22T09:50:43;99295.69;;;22.04;61.44
38033;BME280;23841;48.524;1.342;2023-06-22T09:53:09;99287.78;;;22.01;61.52
38033;BME280;23841;48.524;1.342;2023-06-22T09:55:34;99296.66;;;22.03;61.49
38033;BME280;23841;48.524;1.342;2023-06-22T09:57:59;99292.97;;;22.04;61.38
38033;BME280;23841;48.524;1.342;2023-06-22T10:00:25;99292.03;;;22.05;61.47
38033;BME280;23841;48.524;1.342;2023-06-22T10:02:51;99287.47;;;22.06;61.76
38033;BME280;23841;48.524;1.342;2023-06-22T10:05:17;99292.13;;;22.04;61.66
38033;BME280;23841;48.524;1.342;2023-06-22T10:07:43;99297.31;;;22.07;61.60
38033;BME280;23841;48.524;1.342;2023-06-22T10:10:10;99294.50;;;22.08;61.34
38033;BME280;23841;48.524;1.342;2023-06-22T10:12:42;99300.88;;;22.07;61.53
38033;BME280;23841;48.524;1.342;2023-06-22T10:15:08;99305.31;;;22.08;61.58
38033;BME280;23841;48.524;1.342;2023-06-22T10:17:34;99295.47;;;22.07;61.69
38033;BME280;23841;48.524;1.342;2023-06-22T10:20:00;99300.81;;;22.09;61.74
38033;BME280;23841;48.524;1.342;2023-06-22T10:22:26;99300.88;;;22.07;62.08
38033;BME280;23841;48.524;1.342;2023-06-22T10:24:51;99299.06;;;22.08;62.16
38033;BME280;23841;48.524;1.342;2023-06-22T10:27:17;99304.56;;;22.06;62.30
38033;BME280;23841;48.524;1.342;2023-06-22T10:29:42;99302.63;;;22.08;63.16
38033;BME280;23841;48.524;1.342;2023-06-22T10:32:08;99306.28;;;22.07;63.54
38033;BME280;23841;48.524;1.342;2023-06-22T10:34:33;99300.69;;;22.10;64.35
38033;BME280;23841;48.524;1.342;2023-06-22T10:36:59;99303.41;;;22.10;64.17
38033;BME280;23841;48.524;1.342;2023-06-22T10:39:24;99302.50;;;22.10;64.70
38033;BME280;23841;48.524;1.342;2023-06-22T10:41:50;99303.28;;;22.12;64.77
38033;BME280;23841;48.524;1.342;2023-06-22T10:44:15;99307.72;;;22.13;64.82
38033;BME280;23841;48.524;1.342;2023-06-22T10:46:42;99313.88;;;22.15;64.88
38033;BME280;23841;48.524;1.342;2023-06-22T10:49:08;99319.19;;;22.16;64.63
38033;BME280;23841;48.524;1.342;2023-06-22T10:51:33;99319.97;;;22.19;65.11
38033;BME280;23841;48.524;1.342;2023-06-22T10:53:59;99324.38;;;22.20;64.78
38033;BME280;23841;48.524;1.342;2023-06-22T10:56:24;99324.38;;;22.20;65.59
38033;BME280;23841;48.524;1.342;2023-06-22T10:58:50;99332.38;;;22.21;65.15
38033;BME280;23841;48.524;1.342;2023-06-22T11:01:15;99345.59;;;22.26;65.19
38033;BME280;23841;48.524;1.342;2023-06-22T11:03:41;99332.81;;;22.28;65.30
38033;BME280;23841;48.524;1.342;2023-06-22T11:06:06;99336.53;;;22.27;65.39
38033;BME280;23841;48.524;1.342;2023-06-22T11:08:32;99345.28;;;22.30;65.16
38033;BME280;23841;48.524;1.342;2023-06-22T11:10:57;99344.44;;;22.30;65.10
38033;BME280;23841;48.524;1.342;2023-06-22T11:13:23;99353.41;;;22.30;64.96
38033;BME280;23841;48.524;1.342;2023-06-22T11:15:48;99349.63;;;22.33;65.10
38033;BME280;23841;48.524;1.342;2023-06-22T11:18:14;99363.06;;;22.35;64.78
38033;BME280;23841;48.524;1.342;2023-06-22T11:20:39;99357.72;;;22.33;64.95
38033;BME280;23841;48.524;1.342;2023-06-22T11:23:05;99348.56;;;22.36;64.73
38033;BME280;23841;48.524;1.342;2023-06-22T11:25:34;99358.31;;;22.38;64.50
38033;BME280;23841;48.524;1.342;2023-06-22T11:28:04;99345.66;;;22.39;64.55
38033;BME280;23841;48.524;1.342;2023-06-22T11:30:30;99350.09;;;22.40;64.36
38033;BME280;23841;48.524;1.342;2023-06-22T11:32:59;99356.25;;;22.42;64.12
38033;BME280;23841;48.524;1.342;2023-06-22T11:35:25;99360.59;;;22.44;64.50
38033;BME280;23841;48.524;1.342;2023-06-22T11:37:51;99346.81;;;22.47;63.86
38033;BME280;23841;48.524;1.342;2023-06-22T11:40:16;99346.94;;;22.46;64.02
38033;BME280;23841;48.524;1.342;2023-06-22T11:42:43;99348.69;;;22.47;63.63
38033;BME280;23841;48.524;1.342;2023-06-22T11:45:09;99357.53;;;22.49;63.26
38033;BME280;23841;48.524;1.342;2023-06-22T11:47:35;99347.38;;;22.53;63.25
38033;BME280;23841;48.524;1.342;2023-06-22T11:50:02;99345.63;;;22.52;63.73
38033;BME280;23841;48.524;1.342;2023-06-22T11:52:27;99350.84;;;22.55;63.34
38033;BME280;23841;48.524;1.342;2023-06-22T11:54:53;99352.69;;;22.54;62.93
38033;BME280;23841;48.524;1.342;2023-06-22T11:57:19;99342.94;;;22.52;63.00
38033;BME280;23841;48.524;1.342;2023-06-22T11:59:44;99351.59;;;22.57;62.97
38033;BME280;23841;48.524;1.342;2023-06-22T12:02:09;99353.34;;;22.58;63.14
38033;BME280;23841;48.524;1.342;2023-06-22T12:04:35;99348.91;;;22.57;62.95
38033;BME280;23841;48.524;1.342;2023-06-22T12:07:00;99352.34;;;22.59;62.59
38033;BME280;23841;48.524;1.342;2023-06-22T12:09:26;99361.25;;;22.61;62.84
38033;BME280;23841;48.524;1.342;2023-06-22T12:11:51;99356.69;;;22.61;63.17
38033;BME280;23841;48.524;1.342;2023-06-22T12:14:17;99374.78;;;22.61;63.04
38033;BME280;23841;48.524;1.342;2023-06-22T12:16:42;99365.88;;;22.59;62.71
38033;BME280;23841;48.524;1.342;2023-06-22T12:19:10;99366.09;;;22.56;62.46
38033;BME280;23841;48.524;1.342;2023-06-22T12:21:37;99375.97;;;22.57;62.63
38033;BME280;23841;48.524;1.342;2023-06-22T12:24:04;99375.75;;;22.60;62.81
38033;BME280;23841;48.524;1.342;2023-06-22T12:26:30;99371.50;;;22.56;62.75
38033;BME280;23841;48.524;1.342;2023-06-22T12:28:55;99380.84;;;22.64;62.32
38033;BME280;23841;48.524;1.342;2023-06-22T12:31:21;99381.72;;;22.65;62.42
38033;BME280;23841;48.524;1.342;2023-06-22T12:33:46;99373.69;;;22.63;62.39
38033;BME280;23841;48.524;1.342;2023-06-22T12:36:12;99382.66;;;22.64;62.72
38033;BME280;23841;48.524;1.342;2023-06-22T12:38:37;99380.94;;;22.63;62.46
38033;BME280;23841;48.524;1.342;2023-06-22T12:41:03;99381.81;;;22.63;63.08
38033;BME280;23841;48.524;1.342;2023-06-22T12:43:29;99382.44;;;22.67;62.77
38033;BME280;23841;48.524;1.342;2023-06-22T12:45:55;99376.06;;;22.68;63.04
38033;BME280;23841;48.524;1.342;2023-06-22T12:48:22;99378.56;;;22.71;63.34
38033;BME280;23841;48.524;1.342;2023-06-22T12:50:47;99374.88;;;22.72;63.21
38033;BME280;23841;48.524;1.342;2023-06-22T12:53:13;99371.19;;;22.73;62.98
38033;BME280;23841;48.524;1.342;2023-06-22T12:55:39;99378.34;;;22.74;63.15
38033;BME280;23841;48.524;1.342;2023-06-22T12:58:04;99377.25;;;22.77;62.98
38033;BME280;23841;48.524;1.342;2023-06-22T13:00:30;99384.28;;;22.79;62.93
38033;BME280;23841;48.524;1.342;2023-06-22T13:02:55;99380.50;;;22.82;63.16